sensor_id;sensor_type;location;lat;lon;timestamp;P1;durP1;ratioP1;P2;durP2;ratioP2
75932;SDS011;64803;52.356;5.310;2023-05-10T00:00:41;38.85;;;12.75;;
75932;SDS011;64803;52.356;5.310;2023-05-10T00:03:07;53.20;;;16.13;;
75932;SDS011;64803;52.356;5.310;2023-05-10T00:05:33;51.38;;;14.73;;
75932;SDS011;64803;52.356;5.310;2023-05-10T00:07:59;47.40;;;14.57;;
75932;SDS011;64803;52.356;5.310;2023-05-10T00:10:25;56.90;;;16.38;;
75932;SDS011;64803;52.356;5.310;2023-05-10T00:12:51;56.67;;;17.23;;
75932;SDS011;64803;52.356;5.310;2023-05-10T00:15:17;50.70;;;17.02;;
75932;SDS011;64803;52.356;5.310;2023-05-10T00:17:43;49.72;;;16.40;;
75932;SDS011;64803;52.356;5.310;2023-05-10T00:20:09;49.28;;;15.50;;
75932;SDS011;64803;52.356;5.310;2023-05-10T00:22:35;50.33;;;15.27;;
75932;SDS011;64803;52.356;5.310;2023-05-10T00:25:01;48.20;;;15.60;;
75932;SDS011;64803;52.356;5.310;2023-05-10T00:27:28;46.47;;;16.00;;
75932;SDS011;64803;52.356;5.310;2023-05-10T00:29:53;39.75;;;14.20;;
75932;SDS011;64803;52.356;5.310;2023-05-10T00:32:19;49.40;;;16.67;;
75932;SDS011;64803;52.356;5.310;2023-05-10T00:34:46;59.92;;;17.45;;
75932;SDS011;64803;52.356;5.310;2023-05-10T00:37:12;53.22;;;16.45;;
75932;SDS011;64803;52.356;5.310;2023-05-10T00:39:38;54.78;;;16.25;;
75932;SDS011;64803;52.356;5.310;2023-05-10T00:42:04;50.22;;;16.30;;
75932;SDS011;64803;52.356;5.310;2023-05-10T00:44:31;55.58;;;16.85;;
75932;SDS011;64803;52.356;5.310;2023-05-10T00:46:57;55.00;;;17.60;;
75932;SDS011;64803;52.356;5.310;2023-05-10T00:49:24;60.22;;;17.58;;
75932;SDS011;64803;52.356;5.310;2023-05-10T00:51:50;66.25;;;19.08;;
75932;SDS011;64803;52.356;5.310;2023-05-10T00:54:16;59.33;;;17.40;;
75932;SDS011;64803;52.356;5.310;2023-05-10T00:56:42;74.32;;;21.17;;
75932;SDS011;64803;52.356;5.310;2023-05-10T00:59:17;72.53;;;20.30;;
75932;SDS011;64803;52.356;5.310;2023-05-10T01:01:43;80.35;;;21.02;;
75932;SDS011;64803;52.356;5.310;2023-05-10T01:04:12;78.07;;;21.05;;
75932;SDS011;64803;52.356;5.310;2023-05-10T01:06:39;89.63;;;23.13;;
75932;SDS011;64803;52.356;5.310;2023-05-10T01:09:06;95.22;;;25.45;;
75932;SDS011;64803;52.356;5.310;2023-05-10T01:11:33;95.90;;;25.75;;
75932;SDS011;64803;52.356;5.310;2023-05-10T01:14:01;100.80;;;25.20;;
75932;SDS011;64803;52.356;5.310;2023-05-10T01:16:29;103.85;;;24.25;;
75932;SDS011;64803;52.356;5.310;2023-05-10T01:18:59;99.30;;;26.95;;
75932;SDS011;64803;52.356;5.310;2023-05-10T01:24:25;118.22;;;30.60;;
75932;SDS011;64803;52.356;5.310;2023-05-10T01:34:59;112.15;;;30.70;;
75932;SDS011;64803;52.356;5.310;2023-05-10T01:40:03;110.85;;;30.13;;
75932;SDS011;64803;52.356;5.310;2023-05-10T01:42:39;106.30;;;29.27;;
75932;SDS011;64803;52.356;5.310;2023-05-10T01:45:18;122.30;;;30.77;;
75932;SDS011;64803;52.356;5.310;2023-05-10T01:47:53;115.00;;;32.03;;
75932;SDS011;64803;52.356;5.310;2023-05-10T01:50:32;106.22;;;31.58;;
75932;SDS011;64803;52.356;5.310;2023-05-10T01:53:01;134.77;;;34.38;;
75932;SDS011;64803;52.356;5.310;2023-05-10T01:55:29;108.82;;;31.23;;
75932;SDS011;64803;52.356;5.310;2023-05-10T01:58:20;112.60;;;31.92;;
75932;SDS011;64803;52.356;5.310;2023-05-10T02:00:50;115.05;;;31.75;;
75932;SDS011;64803;52.356;5.310;2023-05-10T02:03:18;122.32;;;34.63;;
75932;SDS011;64803;52.356;5.310;2023-05-10T02:05:48;111.72;;;32.00;;
75932;SDS011;64803;52.356;5.310;2023-05-10T02:08:16;110.13;;;33.75;;
75932;SDS011;64803;52.356;5.310;2023-05-10T02:10:44;124.40;;;34.55;;
75932;SDS011;64803;52.356;5.310;2023-05-10T02:13:11;123.55;;;36.67;;
75932;SDS011;64803;52.356;5.310;2023-05-10T02:15:38;123.18;;;35.67;;
75932;SDS011;64803;52.356;5.310;2023-05-10T02:18:07;113.90;;;36.38;;
75932;SDS011;64803;52.356;5.310;2023-05-10T02:20:35;119.05;;;35.00;;
75932;SDS011;64803;52.356;5.310;2023-05-10T02:23:03;112.43;;;33.28;;
75932;SDS011;64803;52.356;5.310;2023-05-10T02:25:30;116.07;;;35.15;;
75932;SDS011;64803;52.356;5.310;2023-05-10T02:27:57;114.82;;;36.13;;
75932;SDS011;64803;52.356;5.310;2023-05-10T02:30:25;126.10;;;38.03;;
75932;SDS011;64803;52.356;5.310;2023-05-10T02:32:52;112.57;;;33.38;;
75932;SDS011;64803;52.356;5.310;2023-05-10T02:35:19;101.75;;;33.20;;
75932;SDS011;64803;52.356;5.310;2023-05-10T02:37:45;111.93;;;34.33;;
75932;SDS011;64803;52.356;5.310;2023-05-10T02:42:41;106.55;;;35.85;;
75932;SDS011;64803;52.356;5.310;2023-05-10T02:45:12;106.47;;;35.38;;
75932;SDS011;64803;52.356;5.310;2023-05-10T02:47:43;105.63;;;35.05;;
75932;SDS011;64803;52.356;5.310;2023-05-10T02:50:09;107.00;;;35.30;;
75932;SDS011;64803;52.356;5.310;2023-05-10T02:52:37;118.10;;;37.17;;
75932;SDS011;64803;52.356;5.310;2023-05-10T02:55:06;122.53;;;38.13;;
75932;SDS011;64803;52.356;5.310;2023-05-10T02:57:34;128.45;;;40.88;;
75932;SDS011;64803;52.356;5.310;2023-05-10T03:00:07;122.20;;;38.53;;
75932;SDS011;64803;52.356;5.310;2023-05-10T03:02:34;133.70;;;37.83;;
75932;SDS011;64803;52.356;5.310;2023-05-10T03:05:00;124.07;;;35.97;;
75932;SDS011;64803;52.356;5.310;2023-05-10T03:07:27;117.90;;;37.85;;
75932;SDS011;64803;52.356;5.310;2023-05-10T03:09:53;97.25;;;30.38;;
75932;SDS011;64803;52.356;5.310;2023-05-10T03:12:57;78.10;;;27.30;;
75932;SDS011;64803;52.356;5.310;2023-05-10T03:21:03;59.47;;;20.67;;
75932;SDS011;64803;52.356;5.310;2023-05-10T03:25:58;88.18;;;26.65;;
75932;SDS011;64803;52.356;5.310;2023-05-10T03:28:26;88.72;;;27.45;;
75932;SDS011;64803;52.356;5.310;2023-05-10T03:30:55;56.80;;;19.65;;
75932;SDS011;64803;52.356;5.310;2023-05-10T03:33:22;97.10;;;28.13;;
75932;SDS011;64803;52.356;5.310;2023-05-10T03:35:48;108.10;;;26.90;;
75932;SDS011;64803;52.356;5.310;2023-05-10T03:38:15;94.25;;;24.58;;
75932;SDS011;64803;52.356;5.310;2023-05-10T03:40:41;116.53;;;28.23;;
75932;SDS011;64803;52.356;5.310;2023-05-10T03:43:07;140.48;;;33.55;;
75932;SDS011;64803;52.356;5.310;2023-05-10T03:45:34;117.32;;;30.65;;
75932;SDS011;64803;52.356;5.310;2023-05-10T03:48:00;134.30;;;34.13;;
75932;SDS011;64803;52.356;5.310;2023-05-10T03:50:26;107.85;;;26.45;;
75932;SDS011;64803;52.356;5.310;2023-05-10T03:52:52;113.50;;;28.42;;
75932;SDS011;64803;52.356;5.310;2023-05-10T03:55:18;104.45;;;25.35;;
75932;SDS011;64803;52.356;5.310;2023-05-10T03:57:45;153.65;;;33.40;;
75932;SDS011;64803;52.356;5.310;2023-05-10T04:00:11;151.10;;;32.40;;
75932;SDS011;64803;52.356;5.310;2023-05-10T04:02:41;141.10;;;33.15;;
75932;SDS011;64803;52.356;5.310;2023-05-10T04:05:10;138.20;;;32.33;;
75932;SDS011;64803;52.356;5.310;2023-05-10T04:07:36;114.70;;;28.70;;
75932;SDS011;64803;52.356;5.310;2023-05-10T04:10:02;116.40;;;30.38;;
75932;SDS011;64803;52.356;5.310;2023-05-10T04:12:28;110.85;;;28.95;;
75932;SDS011;64803;52.356;5.310;2023-05-10T04:14:54;114.28;;;29.85;;
75932;SDS011;64803;52.356;5.310;2023-05-10T04:17:20;89.60;;;23.73;;
75932;SDS011;64803;52.356;5.310;2023-05-10T04:19:46;99.45;;;28.35;;
75932;SDS011;64803;52.356;5.310;2023-05-10T04:22:12;110.57;;;30.35;;
75932;SDS011;64803;52.356;5.310;2023-05-10T04:24:38;81.25;;;23.70;;
75932;SDS011;64803;52.356;5.310;2023-05-10T04:27:04;84.95;;;25.33;;
75932;SDS011;64803;52.356;5.310;2023-05-10T04:29:30;80.45;;;23.58;;
75932;SDS011;64803;52.356;5.310;2023-05-10T04:31:56;73.00;;;23.63;;
75932;SDS011;64803;52.356;5.310;2023-05-10T04:34:22;84.18;;;26.50;;
75932;SDS011;64803;52.356;5.310;2023-05-10T04:36:48;88.38;;;26.88;;
75932;SDS011;64803;52.356;5.310;2023-05-10T04:39:14;74.80;;;22.08;;
75932;SDS011;64803;52.356;5.310;2023-05-10T04:41:40;75.90;;;25.40;;
75932;SDS011;64803;52.356;5.310;2023-05-10T04:44:06;77.82;;;24.35;;
75932;SDS011;64803;52.356;5.310;2023-05-10T04:46:32;83.25;;;23.92;;
75932;SDS011;64803;52.356;5.310;2023-05-10T04:48:58;83.30;;;26.92;;
75932;SDS011;64803;52.356;5.310;2023-05-10T04:51:24;84.25;;;27.40;;
75932;SDS011;64803;52.356;5.310;2023-05-10T04:53:50;88.10;;;26.58;;
75932;SDS011;64803;52.356;5.310;2023-05-10T04:56:16;74.53;;;22.02;;
75932;SDS011;64803;52.356;5.310;2023-05-10T04:58:42;77.47;;;24.23;;
75932;SDS011;64803;52.356;5.310;2023-05-10T05:01:08;79.95;;;24.95;;
75932;SDS011;64803;52.356;5.310;2023-05-10T05:03:36;84.40;;;24.52;;
75932;SDS011;64803;52.356;5.310;2023-05-10T05:06:02;60.28;;;15.82;;
75932;SDS011;64803;52.356;5.310;2023-05-10T05:08:29;77.88;;;21.23;;
75932;SDS011;64803;52.356;5.310;2023-05-10T05:10:55;67.72;;;20.13;;
75932;SDS011;64803;52.356;5.310;2023-05-10T05:13:21;74.22;;;22.35;;
75932;SDS011;64803;52.356;5.310;2023-05-10T05:15:47;78.15;;;21.25;;
75932;SDS011;64803;52.356;5.310;2023-05-10T05:18:13;55.17;;;16.30;;
75932;SDS011;64803;52.356;5.310;2023-05-10T05:20:39;54.80;;;18.52;;
75932;SDS011;64803;52.356;5.310;2023-05-10T05:23:05;52.13;;;15.45;;
75932;SDS011;64803;52.356;5.310;2023-05-10T05:25:31;41.63;;;13.02;;
75932;SDS011;64803;52.356;5.310;2023-05-10T05:27:57;37.85;;;13.43;;
75932;SDS011;64803;52.356;5.310;2023-05-10T05:30:23;28.58;;;9.93;;
75932;SDS011;64803;52.356;5.310;2023-05-10T05:32:49;26.25;;;8.80;;
75932;SDS011;64803;52.356;5.310;2023-05-10T05:35:15;29.48;;;7.45;;
75932;SDS011;64803;52.356;5.310;2023-05-10T05:37:41;29.23;;;10.10;;
75932;SDS011;64803;52.356;5.310;2023-05-10T05:40:07;19.02;;;6.38;;
75932;SDS011;64803;52.356;5.310;2023-05-10T05:42:34;26.50;;;9.45;;
75932;SDS011;64803;52.356;5.310;2023-05-10T05:45:00;26.52;;;8.88;;
75932;SDS011;64803;52.356;5.310;2023-05-10T05:47:26;25.55;;;8.88;;
75932;SDS011;64803;52.356;5.310;2023-05-10T05:49:52;27.83;;;9.80;;
75932;SDS011;64803;52.356;5.310;2023-05-10T05:52:17;20.70;;;7.53;;
75932;SDS011;64803;52.356;5.310;2023-05-10T05:54:43;28.23;;;9.15;;
75932;SDS011;64803;52.356;5.310;2023-05-10T05:57:09;26.70;;;8.82;;
75932;SDS011;64803;52.356;5.310;2023-05-10T05:59:35;28.70;;;9.40;;
75932;SDS011;64803;52.356;5.310;2023-05-10T06:02:01;26.40;;;10.07;;
75932;SDS011;64803;52.356;5.310;2023-05-10T06:04:27;30.92;;;10.55;;
75932;SDS011;64803;52.356;5.310;2023-05-10T06:06:53;28.27;;;9.80;;
75932;SDS011;64803;52.356;5.310;2023-05-10T06:09:19;32.20;;;10.80;;
75932;SDS011;64803;52.356;5.310;2023-05-10T06:11:46;22.83;;;8.35;;
75932;SDS011;64803;52.356;5.310;2023-05-10T06:14:12;28.42;;;9.15;;
75932;SDS011;64803;52.356;5.310;2023-05-10T06:16:38;30.17;;;10.55;;
75932;SDS011;64803;52.356;5.310;2023-05-10T06:19:04;34.85;;;10.80;;
75932;SDS011;64803;52.356;5.310;2023-05-10T06:21:31;18.45;;;6.60;;
75932;SDS011;64803;52.356;5.310;2023-05-10T06:23:57;16.67;;;6.25;;
75932;SDS011;64803;52.356;5.310;2023-05-10T06:26:23;16.92;;;7.20;;
75932;SDS011;64803;52.356;5.310;2023-05-10T06:28:49;25.73;;;7.80;;
75932;SDS011;64803;52.356;5.310;2023-05-10T06:31:15;17.35;;;8.02;;
75932;SDS011;64803;52.356;5.310;2023-05-10T06:33:41;22.98;;;8.18;;
75932;SDS011;64803;52.356;5.310;2023-05-10T06:36:07;16.15;;;6.28;;
75932;SDS011;64803;52.356;5.310;2023-05-10T06:38:33;19.27;;;6.28;;
75932;SDS011;64803;52.356;5.310;2023-05-10T06:40:59;19.08;;;7.68;;
75932;SDS011;64803;52.356;5.310;2023-05-10T06:43:26;27.38;;;9.85;;
75932;SDS011;64803;52.356;5.310;2023-05-10T06:45:54;28.35;;;10.20;;
75932;SDS011;64803;52.356;5.310;2023-05-10T06:48:20;24.85;;;8.85;;
75932;SDS011;64803;52.356;5.310;2023-05-10T06:50:46;19.77;;;7.72;;
75932;SDS011;64803;52.356;5.310;2023-05-10T06:53:12;22.50;;;9.18;;
75932;SDS011;64803;52.356;5.310;2023-05-10T06:55:39;17.85;;;7.80;;
75932;SDS011;64803;52.356;5.310;2023-05-10T06:58:05;23.92;;;8.75;;
75932;SDS011;64803;52.356;5.310;2023-05-10T07:00:31;25.38;;;8.48;;
75932;SDS011;64803;52.356;5.310;2023-05-10T07:02:57;24.25;;;8.50;;
75932;SDS011;64803;52.356;5.310;2023-05-10T07:05:24;20.92;;;7.78;;
75932;SDS011;64803;52.356;5.310;2023-05-10T07:07:50;23.92;;;9.45;;
75932;SDS011;64803;52.356;5.310;2023-05-10T07:10:16;23.15;;;8.35;;
75932;SDS011;64803;52.356;5.310;2023-05-10T07:12:42;19.77;;;6.78;;
75932;SDS011;64803;52.356;5.310;2023-05-10T07:15:08;14.27;;;5.03;;
75932;SDS011;64803;52.356;5.310;2023-05-10T07:17:34;20.83;;;7.78;;
75932;SDS011;64803;52.356;5.310;2023-05-10T07:20:00;22.23;;;8.13;;
75932;SDS011;64803;52.356;5.310;2023-05-10T07:22:27;19.70;;;7.30;;
75932;SDS011;64803;52.356;5.310;2023-05-10T07:24:53;16.67;;;6.82;;
75932;SDS011;64803;52.356;5.310;2023-05-10T07:27:19;21.10;;;7.80;;
75932;SDS011;64803;52.356;5.310;2023-05-10T07:29:45;22.48;;;8.00;;
75932;SDS011;64803;52.356;5.310;2023-05-10T07:32:11;23.40;;;6.82;;
75932;SDS011;64803;52.356;5.310;2023-05-10T07:34:37;15.20;;;5.40;;
75932;SDS011;64803;52.356;5.310;2023-05-10T07:37:03;10.43;;;4.47;;
75932;SDS011;64803;52.356;5.310;2023-05-10T07:39:29;15.20;;;5.93;;
75932;SDS011;64803;52.356;5.310;2023-05-10T07:41:55;14.57;;;5.10;;
75932;SDS011;64803;52.356;5.310;2023-05-10T07:44:22;12.85;;;5.22;;
75932;SDS011;64803;52.356;5.310;2023-05-10T07:46:48;11.20;;;4.50;;
75932;SDS011;64803;52.356;5.310;2023-05-10T07:49:14;16.83;;;5.40;;
75932;SDS011;64803;52.356;5.310;2023-05-10T07:51:41;11.52;;;3.80;;
75932;SDS011;64803;52.356;5.310;2023-05-10T07:54:08;10.73;;;4.13;;
75932;SDS011;64803;52.356;5.310;2023-05-10T07:56:34;18.15;;;5.80;;
75932;SDS011;64803;52.356;5.310;2023-05-10T07:59:01;15.75;;;5.70;;
75932;SDS011;64803;52.356;5.310;2023-05-10T08:01:30;12.70;;;4.93;;
75932;SDS011;64803;52.356;5.310;2023-05-10T08:03:57;12.35;;;4.80;;
75932;SDS011;64803;52.356;5.310;2023-05-10T08:06:23;14.50;;;4.80;;
75932;SDS011;64803;52.356;5.310;2023-05-10T08:08:52;15.45;;;5.40;;
75932;SDS011;64803;52.356;5.310;2023-05-10T08:11:19;14.05;;;5.35;;
75932;SDS011;64803;52.356;5.310;2023-05-10T08:13:46;13.73;;;5.35;;
75932;SDS011;64803;52.356;5.310;2023-05-10T08:16:13;14.82;;;4.22;;
75932;SDS011;64803;52.356;5.310;2023-05-10T08:18:39;15.52;;;4.65;;
75932;SDS011;64803;52.356;5.310;2023-05-10T08:21:05;11.32;;;4.63;;
75932;SDS011;64803;52.356;5.310;2023-05-10T08:23:32;13.25;;;4.88;;
75932;SDS011;64803;52.356;5.310;2023-05-10T08:25:58;13.23;;;4.68;;
75932;SDS011;64803;52.356;5.310;2023-05-10T08:28:25;11.88;;;4.40;;
75932;SDS011;64803;52.356;5.310;2023-05-10T08:30:51;11.35;;;4.25;;
75932;SDS011;64803;52.356;5.310;2023-05-10T08:33:19;10.30;;;4.05;;
75932;SDS011;64803;52.356;5.310;2023-05-10T08:35:45;11.55;;;4.40;;
75932;SDS011;64803;52.356;5.310;2023-05-10T08:38:11;11.60;;;4.95;;
75932;SDS011;64803;52.356;5.310;2023-05-10T08:40:39;14.73;;;5.15;;
75932;SDS011;64803;52.356;5.310;2023-05-10T08:43:09;14.82;;;5.32;;
75932;SDS011;64803;52.356;5.310;2023-05-10T08:45:37;13.07;;;4.95;;
75932;SDS011;64803;52.356;5.310;2023-05-10T08:48:08;15.15;;;5.40;;
75932;SDS011;64803;52.356;5.310;2023-05-10T08:50:35;12.43;;;5.20;;
75932;SDS011;64803;52.356;5.310;2023-05-10T08:53:12;12.38;;;5.03;;
75932;SDS011;64803;52.356;5.310;2023-05-10T08:55:40;14.93;;;5.10;;
75932;SDS011;64803;52.356;5.310;2023-05-10T08:58:08;14.18;;;5.30;;
75932;SDS011;64803;52.356;5.310;2023-05-10T09:00:35;13.77;;;5.40;;
75932;SDS011;64803;52.356;5.310;2023-05-10T09:03:03;14.20;;;5.63;;
75932;SDS011;64803;52.356;5.310;2023-05-10T09:05:29;18.10;;;6.50;;
75932;SDS011;64803;52.356;5.310;2023-05-10T09:07:56;17.17;;;6.38;;
75932;SDS011;64803;52.356;5.310;2023-05-10T09:10:22;11.93;;;4.72;;
75932;SDS011;64803;52.356;5.310;2023-05-10T09:12:51;14.00;;;5.45;;
75932;SDS011;64803;52.356;5.310;2023-05-10T09:15:18;13.50;;;5.13;;
75932;SDS011;64803;52.356;5.310;2023-05-10T09:17:45;14.80;;;5.95;;
75932;SDS011;64803;52.356;5.310;2023-05-10T09:20:11;17.17;;;5.60;;
75932;SDS011;64803;52.356;5.310;2023-05-10T09:22:38;12.75;;;4.85;;
75932;SDS011;64803;52.356;5.310;2023-05-10T09:25:08;12.48;;;5.18;;
75932;SDS011;64803;52.356;5.310;2023-05-10T09:27:37;13.98;;;4.35;;
75932;SDS011;64803;52.356;5.310;2023-05-10T09:30:04;14.52;;;6.10;;
75932;SDS011;64803;52.356;5.310;2023-05-10T09:35:16;11.77;;;4.57;;
75932;SDS011;64803;52.356;5.310;2023-05-10T09:37:47;14.30;;;6.35;;
75932;SDS011;64803;52.356;5.310;2023-05-10T09:40:15;16.08;;;7.05;;
75932;SDS011;64803;52.356;5.310;2023-05-10T09:42:43;19.40;;;8.00;;
75932;SDS011;64803;52.356;5.310;2023-05-10T09:45:36;17.15;;;7.30;;
75932;SDS011;64803;52.356;5.310;2023-05-10T09:48:02;15.75;;;6.53;;
75932;SDS011;64803;52.356;5.310;2023-05-10T09:50:29;16.60;;;7.15;;
75932;SDS011;64803;52.356;5.310;2023-05-10T09:55:39;16.20;;;6.75;;
75932;SDS011;64803;52.356;5.310;2023-05-10T09:58:06;17.38;;;6.53;;
75932;SDS011;64803;52.356;5.310;2023-05-10T10:00:39;13.50;;;6.43;;
75932;SDS011;64803;52.356;5.310;2023-05-10T10:03:14;15.30;;;6.20;;
75932;SDS011;64803;52.356;5.310;2023-05-10T10:05:42;11.63;;;6.05;;
75932;SDS011;64803;52.356;5.310;2023-05-10T10:08:09;15.40;;;6.05;;
75932;SDS011;64803;52.356;5.310;2023-05-10T10:10:36;13.82;;;6.50;;
75932;SDS011;64803;52.356;5.310;2023-05-10T10:13:02;14.45;;;6.70;;
75932;SDS011;64803;52.356;5.310;2023-05-10T10:15:28;13.88;;;6.93;;
75932;SDS011;64803;52.356;5.310;2023-05-10T10:17:54;14.63;;;6.97;;
75932;SDS011;64803;52.356;5.310;2023-05-10T10:20:21;16.00;;;6.90;;
75932;SDS011;64803;52.356;5.310;2023-05-10T10:22:48;15.57;;;6.65;;
75932;SDS011;64803;52.356;5.310;2023-05-10T10:25:15;13.35;;;6.30;;
75932;SDS011;64803;52.356;5.310;2023-05-10T10:30:51;12.35;;;5.68;;
75932;SDS011;64803;52.356;5.310;2023-05-10T10:36:06;16.05;;;7.45;;
75932;SDS011;64803;52.356;5.310;2023-05-10T10:39:15;17.38;;;7.53;;
75932;SDS011;64803;52.356;5.310;2023-05-10T10:41:39;18.45;;;7.30;;
75932;SDS011;64803;52.356;5.310;2023-05-10T10:49:50;14.13;;;7.20;;
75932;SDS011;64803;52.356;5.310;2023-05-10T10:52:23;15.65;;;6.90;;
75932;SDS011;64803;52.356;5.310;2023-05-10T10:54:51;17.13;;;6.85;;
75932;SDS011;64803;52.356;5.310;2023-05-10T10:57:27;13.60;;;6.18;;
75932;SDS011;64803;52.356;5.310;2023-05-10T11:02:53;14.55;;;5.47;;
75932;SDS011;64803;52.356;5.310;2023-05-10T11:05:24;10.23;;;4.30;;
75932;SDS011;64803;52.356;5.310;2023-05-10T11:07:59;7.78;;;3.40;;
75932;SDS011;64803;52.356;5.310;2023-05-10T11:10:26;8.98;;;3.60;;
75932;SDS011;64803;52.356;5.310;2023-05-10T11:13:02;9.60;;;3.92;;
75932;SDS011;64803;52.356;5.310;2023-05-10T11:15:31;8.60;;;3.42;;
75932;SDS011;64803;52.356;5.310;2023-05-10T11:17:57;9.70;;;3.67;;
75932;SDS011;64803;52.356;5.310;2023-05-10T11:20:24;9.00;;;3.60;;
75932;SDS011;64803;52.356;5.310;2023-05-10T11:23:10;8.30;;;3.45;;
75932;SDS011;64803;52.356;5.310;2023-05-10T11:25:42;9.43;;;3.25;;
75932;SDS011;64803;52.356;5.310;2023-05-10T11:28:11;8.38;;;3.47;;
75932;SDS011;64803;52.356;5.310;2023-05-10T11:30:39;10.15;;;3.22;;
75932;SDS011;64803;52.356;5.310;2023-05-10T11:33:06;8.70;;;3.22;;
75932;SDS011;64803;52.356;5.310;2023-05-10T11:35:37;7.60;;;2.72;;
75932;SDS011;64803;52.356;5.310;2023-05-10T11:38:07;8.13;;;3.13;;
75932;SDS011;64803;52.356;5.310;2023-05-10T11:40:34;9.50;;;3.00;;
75932;SDS011;64803;52.356;5.310;2023-05-10T11:43:01;10.18;;;3.13;;
75932;SDS011;64803;52.356;5.310;2023-05-10T11:45:28;8.85;;;2.90;;
75932;SDS011;64803;52.356;5.310;2023-05-10T11:47:57;11.38;;;2.65;;
75932;SDS011;64803;52.356;5.310;2023-05-10T11:50:24;6.82;;;2.47;;
75932;SDS011;64803;52.356;5.310;2023-05-10T11:52:52;7.40;;;3.05;;
75932;SDS011;64803;52.356;5.310;2023-05-10T11:55:18;9.70;;;3.03;;
75932;SDS011;64803;52.356;5.310;2023-05-10T11:57:44;6.75;;;2.83;;
75932;SDS011;64803;52.356;5.310;2023-05-10T12:00:12;7.30;;;2.60;;
75932;SDS011;64803;52.356;5.310;2023-05-10T12:02:41;7.55;;;3.05;;
75932;SDS011;64803;52.356;5.310;2023-05-10T12:05:07;8.68;;;3.03;;
75932;SDS011;64803;52.356;5.310;2023-05-10T12:12:39;8.57;;;2.40;;
75932;SDS011;64803;52.356;5.310;2023-05-10T12:15:11;8.05;;;2.83;;
75932;SDS011;64803;52.356;5.310;2023-05-10T12:17:39;7.97;;;2.85;;
75932;SDS011;64803;52.356;5.310;2023-05-10T12:22:52;8.73;;;3.45;;
75932;SDS011;64803;52.356;5.310;2023-05-10T12:25:20;8.80;;;3.30;;
75932;SDS011;64803;52.356;5.310;2023-05-10T12:30:24;9.18;;;3.33;;
75932;SDS011;64803;52.356;5.310;2023-05-10T12:32:51;9.45;;;3.75;;
75932;SDS011;64803;52.356;5.310;2023-05-10T12:35:18;10.98;;;4.88;;
75932;SDS011;64803;52.356;5.310;2023-05-10T12:37:52;11.15;;;5.25;;
75932;SDS011;64803;52.356;5.310;2023-05-10T12:40:18;11.50;;;4.72;;
75932;SDS011;64803;52.356;5.310;2023-05-10T12:42:44;13.32;;;5.57;;
75932;SDS011;64803;52.356;5.310;2023-05-10T12:45:11;14.45;;;5.63;;
75932;SDS011;64803;52.356;5.310;2023-05-10T12:47:37;15.05;;;5.57;;
75932;SDS011;64803;52.356;5.310;2023-05-10T12:50:03;11.32;;;5.13;;
75932;SDS011;64803;52.356;5.310;2023-05-10T12:52:30;12.13;;;4.93;;
75932;SDS011;64803;52.356;5.310;2023-05-10T12:54:58;13.73;;;4.85;;
75932;SDS011;64803;52.356;5.310;2023-05-10T12:59:51;9.93;;;3.10;;
75932;SDS011;64803;52.356;5.310;2023-05-10T13:02:17;8.55;;;3.38;;
75932;SDS011;64803;52.356;5.310;2023-05-10T13:04:46;7.68;;;3.53;;
75932;SDS011;64803;52.356;5.310;2023-05-10T13:07:13;11.70;;;3.80;;
75932;SDS011;64803;52.356;5.310;2023-05-10T13:09:39;11.27;;;3.50;;
75932;SDS011;64803;52.356;5.310;2023-05-10T13:12:05;8.70;;;3.83;;
75932;SDS011;64803;52.356;5.310;2023-05-10T13:14:31;9.82;;;3.60;;
75932;SDS011;64803;52.356;5.310;2023-05-10T13:16:57;7.82;;;2.88;;
75932;SDS011;64803;52.356;5.310;2023-05-10T13:19:24;10.27;;;2.55;;
75932;SDS011;64803;52.356;5.310;2023-05-10T13:21:50;11.50;;;3.00;;
75932;SDS011;64803;52.356;5.310;2023-05-10T13:24:16;12.30;;;2.97;;
75932;SDS011;64803;52.356;5.310;2023-05-10T13:26:42;7.13;;;2.67;;
75932;SDS011;64803;52.356;5.310;2023-05-10T13:29:09;8.32;;;3.13;;
75932;SDS011;64803;52.356;5.310;2023-05-10T13:31:35;11.45;;;2.95;;
75932;SDS011;64803;52.356;5.310;2023-05-10T13:34:01;6.35;;;2.28;;
75932;SDS011;64803;52.356;5.310;2023-05-10T13:36:28;8.73;;;2.58;;
75932;SDS011;64803;52.356;5.310;2023-05-10T13:38:54;8.38;;;2.75;;
75932;SDS011;64803;52.356;5.310;2023-05-10T13:41:20;8.80;;;2.63;;
75932;SDS011;64803;52.356;5.310;2023-05-10T13:43:46;4.55;;;1.70;;
75932;SDS011;64803;52.356;5.310;2023-05-10T13:46:14;5.68;;;2.03;;
75932;SDS011;64803;52.356;5.310;2023-05-10T13:48:40;6.95;;;2.20;;
75932;SDS011;64803;52.356;5.310;2023-05-10T13:51:06;7.78;;;1.70;;
75932;SDS011;64803;52.356;5.310;2023-05-10T13:53:32;8.32;;;2.40;;
75932;SDS011;64803;52.356;5.310;2023-05-10T13:55:58;7.05;;;2.33;;
75932;SDS011;64803;52.356;5.310;2023-05-10T13:58:24;7.53;;;2.78;;
75932;SDS011;64803;52.356;5.310;2023-05-10T14:00:50;10.70;;;3.15;;
75932;SDS011;64803;52.356;5.310;2023-05-10T14:03:16;8.07;;;2.75;;
75932;SDS011;64803;52.356;5.310;2023-05-10T14:05:42;7.65;;;2.35;;
75932;SDS011;64803;52.356;5.310;2023-05-10T14:08:08;10.30;;;3.03;;
75932;SDS011;64803;52.356;5.310;2023-05-10T14:10:35;9.25;;;3.15;;
75932;SDS011;64803;52.356;5.310;2023-05-10T14:13:02;10.25;;;3.53;;
75932;SDS011;64803;52.356;5.310;2023-05-10T14:15:28;10.77;;;3.72;;
75932;SDS011;64803;52.356;5.310;2023-05-10T14:17:54;8.48;;;3.63;;
75932;SDS011;64803;52.356;5.310;2023-05-10T14:20:21;10.77;;;3.42;;
75932;SDS011;64803;52.356;5.310;2023-05-10T14:22:47;10.73;;;3.55;;
75932;SDS011;64803;52.356;5.310;2023-05-10T14:25:13;11.02;;;4.03;;
75932;SDS011;64803;52.356;5.310;2023-05-10T14:27:39;12.23;;;3.88;;
75932;SDS011;64803;52.356;5.310;2023-05-10T14:30:06;17.05;;;4.93;;
75932;SDS011;64803;52.356;5.310;2023-05-10T14:32:32;10.20;;;4.30;;
75932;SDS011;64803;52.356;5.310;2023-05-10T14:34:58;11.15;;;3.95;;
75932;SDS011;64803;52.356;5.310;2023-05-10T14:37:25;8.98;;;3.72;;
75932;SDS011;64803;52.356;5.310;2023-05-10T14:39:51;14.70;;;4.40;;
75932;SDS011;64803;52.356;5.310;2023-05-10T14:42:18;9.77;;;4.38;;
75932;SDS011;64803;52.356;5.310;2023-05-10T14:44:45;9.93;;;3.80;;
75932;SDS011;64803;52.356;5.310;2023-05-10T14:47:11;9.85;;;4.35;;
75932;SDS011;64803;52.356;5.310;2023-05-10T14:49:37;9.90;;;4.38;;
75932;SDS011;64803;52.356;5.310;2023-05-10T14:52:03;11.15;;;5.00;;
75932;SDS011;64803;52.356;5.310;2023-05-10T14:54:29;9.95;;;4.38;;
75932;SDS011;64803;52.356;5.310;2023-05-10T14:56:55;9.93;;;4.63;;
75932;SDS011;64803;52.356;5.310;2023-05-10T14:59:21;10.13;;;4.47;;
75932;SDS011;64803;52.356;5.310;2023-05-10T15:01:47;13.25;;;4.30;;
75932;SDS011;64803;52.356;5.310;2023-05-10T15:04:13;10.15;;;4.10;;
75932;SDS011;64803;52.356;5.310;2023-05-10T15:06:42;12.85;;;5.50;;
75932;SDS011;64803;52.356;5.310;2023-05-10T15:09:08;16.02;;;6.10;;
75932;SDS011;64803;52.356;5.310;2023-05-10T15:11:34;15.00;;;5.60;;
75932;SDS011;64803;52.356;5.310;2023-05-10T15:14:00;15.20;;;6.20;;
75932;SDS011;64803;52.356;5.310;2023-05-10T15:16:27;14.73;;;5.75;;
75932;SDS011;64803;52.356;5.310;2023-05-10T15:18:53;23.58;;;8.32;;
75932;SDS011;64803;52.356;5.310;2023-05-10T15:21:19;21.15;;;7.80;;
75932;SDS011;64803;52.356;5.310;2023-05-10T15:23:45;20.30;;;8.05;;
75932;SDS011;64803;52.356;5.310;2023-05-10T15:26:11;16.23;;;5.95;;
75932;SDS011;64803;52.356;5.310;2023-05-10T15:28:37;27.40;;;9.50;;